Time;durP1;ratioP1;P1;durP2;ratioP2;P2;SDS_P1;SDS_P2;PMS_P1;PMS_P2;Temp;Humidity;BMP_temperature;BMP_pressure;BME280_temperature;BME280_humidity;BME280_pressure;Samples;Min_cycle;Max_cycle;Signal;HPM_P1;HPM_P2
2021/05/11 00:01:05;;;;;;;3.87;2.27;;;20.80;86.60;;;;;;5095744;28;20198;-45
2021/05/11 00:03:31;;;;;;;4.10;2.40;;;20.80;86.80;;;;;;5095244;28;20219;-46
2021/05/11 00:05:57;;;;;;;2.77;2.33;;;20.70;87.20;;;;;;5096704;28;20194;-50
2021/05/11 00:08:23;;;;;;;5.57;2.30;;;20.80;87.40;;;;;;5096750;28;20170;-56
2021/05/11 00:10:49;;;;;;;3.10;2.43;;;20.70;87.40;;;;;;5095979;28;20176;-48
2021/05/11 00:13:14;;;;;;;3.40;2.10;;;20.70;87.80;;;;;;5095140;28;20181;-53
2021/05/11 00:15:40;;;;;;;4.10;2.20;;;20.70;88.20;;;;;;5095987;28;20237;-53
2021/05/11 00:18:05;;;;;;;5.10;2.50;;;20.70;88.20;;;;;;5096986;28;20170;-50
2021/05/11 00:20:31;;;;;;;3.27;2.40;;;20.60;88.10;;;;;;5096029;28;20189;-53
2021/05/11 00:22:56;;;;;;;6.67;2.40;;;20.50;88.00;;;;;;5096659;28;20166;-55
2021/05/11 00:25:22;;;;;;;2.90;2.47;;;20.50;88.80;;;;;;5094532;28;20178;-49
2021/05/11 00:27:47;;;;;;;2.60;2.40;;;20.50;88.80;;;;;;5095344;28;20649;-51
2021/05/11 00:30:14;;;;;;;4.43;2.70;;;20.50;89.00;;;;;;5095449;28;20197;-50
2021/05/11 00:32:39;;;;;;;3.00;2.40;;;20.40;89.30;;;;;;5095125;28;20170;-50
2021/05/11 00:35:06;;;;;;;2.27;2.07;;;20.30;89.20;;;;;;5095275;28;20206;-46
2021/05/11 00:37:32;;;;;;;5.30;2.57;;;20.40;89.50;;;;;;5076878;28;20213;-52
2021/05/11 00:39:57;;;;;;;3.03;2.07;;;20.30;89.90;;;;;;5095413;28;20202;-51
2021/05/11 00:42:23;;;;;;;4.10;2.20;;;20.30;90.00;;;;;;5095124;28;20174;-46
2021/05/11 00:44:49;;;;;;;3.63;2.40;;;20.20;90.00;;;;;;5095266;28;20223;-50
2021/05/11 00:47:14;;;;;;;5.07;2.33;;;20.30;90.30;;;;;;5093975;28;20189;-45
2021/05/11 00:49:40;;;;;;;2.83;2.20;;;20.10;90.20;;;;;;5093836;28;20174;-46
2021/05/11 00:52:07;;;;;;;4.10;2.37;;;20.10;90.30;;;;;;5094820;28;20177;-45
2021/05/11 00:54:34;;;;;;;3.13;2.10;;;20.00;90.40;;;;;;5096475;28;20174;-55
2021/05/11 00:57:01;;;;;;;3.37;2.13;;;20.00;90.60;;;;;;5096913;28;20198;-49
2021/05/11 00:59:28;;;;;;;3.23;2.23;;;20.00;90.50;;;;;;5095357;28;20169;-46
2021/05/11 01:01:55;;;;;;;5.50;2.57;;;20.00;90.70;;;;;;5094331;28;20177;-45
2021/05/11 01:04:22;;;;;;;5.73;2.37;;;20.00;90.70;;;;;;5093784;28;20174;-49
2021/05/11 01:06:47;;;;;;;3.30;2.27;;;19.90;90.80;;;;;;5095417;28;20641;-50
2021/05/11 01:09:14;;;;;;;2.30;2.10;;;19.90;91.10;;;;;;5094184;28;20166;-45
2021/05/11 01:11:40;;;;;;;3.93;2.40;;;19.90;91.00;;;;;;5094471;28;20173;-51
2021/05/11 01:14:06;;;;;;;3.53;2.20;;;20.00;91.00;;;;;;5094254;28;20166;-52
2021/05/11 01:16:33;;;;;;;2.30;2.10;;;20.00;90.90;;;;;;5094296;28;20200;-51
2021/05/11 01:50:32;;;;;;;4.33;2.47;;;19.70;91.50;;;;;;5032719;28;20181;-48
2021/05/11 01:53:32;;;;;;;4.13;2.27;;;19.70;91.60;;;;;;5032216;28;20550;-49
2021/05/11 01:58:51;;;;;;;4.67;2.50;;;19.80;91.70;;;;;;5032087;28;20164;-47
2021/05/11 02:23:08;;;;;;;5.73;2.57;;;19.50;91.90;;;;;;5098206;28;20679;-51
2021/05/11 02:25:34;;;;;;;4.40;2.50;;;19.40;92.00;;;;;;5097592;28;20174;-49
2021/05/11 02:27:59;;;;;;;4.70;2.63;;;19.40;92.10;;;;;;5097588;28;20219;-49
2021/05/11 02:30:25;;;;;;;2.80;2.10;;;19.40;92.10;;;;;;5096679;28;20227;-51
2021/05/11 02:32:51;;;;;;;3.30;2.40;;;19.30;92.20;;;;;;5096628;28;20221;-47
2021/05/11 02:35:18;;;;;;;4.63;2.33;;;19.30;92.30;;;;;;5099003;28;20188;-47
2021/05/11 02:37:44;;;;;;;5.67;2.43;;;19.30;92.30;;;;;;5097745;28;20715;-57
2021/05/11 02:40:12;;;;;;;3.63;2.50;;;19.30;92.40;;;;;;5097189;28;20226;-55
2021/05/11 02:42:40;;;;;;;2.40;2.20;;;19.30;92.40;;;;;;5096668;28;20170;-52
2021/05/11 02:45:10;;;;;;;4.50;2.63;;;19.30;92.40;;;;;;5097330;28;20629;-45
2021/05/11 02:47:47;;;;;;;3.07;2.40;;;19.30;92.50;;;;;;5097279;28;20581;-46
2021/05/11 02:50:14;;;;;;;6.00;2.50;;;19.30;92.60;;;;;;5097053;28;20186;-49
2021/05/11 02:52:39;;;;;;;3.23;2.53;;;19.30;92.50;;;;;;5098613;28;20263;-50
2021/05/11 02:55:05;;;;;;;4.43;3.10;;;19.40;92.60;;;;;;5097227;28;20228;-55
2021/05/11 02:57:30;;;;;;;5.33;3.30;;;19.30;92.50;;;;;;5100025;28;20191;-56
2021/05/11 02:59:56;;;;;;;4.80;2.97;;;19.30;92.50;;;;;;5097083;28;20218;-51
2021/05/11 03:02:21;;;;;;;3.57;2.80;;;19.30;92.40;;;;;;5097430;28;20529;-47
2021/05/11 03:04:47;;;;;;;5.73;2.30;;;19.30;92.40;;;;;;5096188;28;20634;-45
2021/05/11 03:07:12;;;;;;;6.20;2.53;;;19.30;92.50;;;;;;5097002;28;20649;-54
2021/05/11 03:09:38;;;;;;;5.67;2.40;;;19.20;92.40;;;;;;5097516;28;20523;-53
2021/05/11 03:12:04;;;;;;;3.63;2.40;;;19.20;92.40;;;;;;5095535;28;20199;-51
2021/05/11 03:14:33;;;;;;;3.43;2.57;;;19.30;92.30;;;;;;5095961;28;20176;-48
2021/05/11 03:16:58;;;;;;;4.83;2.40;;;19.20;92.30;;;;;;5095989;28;20207;-47
2021/05/11 03:19:24;;;;;;;3.37;2.27;;;19.10;92.30;;;;;;5096049;28;20168;-55
2021/05/11 03:21:49;;;;;;;3.50;2.20;;;19.10;92.40;;;;;;5095918;28;20181;-53
2021/05/11 03:24:16;;;;;;;5.00;2.10;;;19.00;92.30;;;;;;5095698;28;20166;-50
2021/05/11 03:26:42;;;;;;;3.70;2.30;;;18.90;92.30;;;;;;5096719;28;20184;-50
2021/05/11 03:29:07;;;;;;;4.93;2.20;;;19.00;92.30;;;;;;5097310;28;20179;-51
2021/05/11 03:31:33;;;;;;;2.27;2.07;;;19.10;92.40;;;;;;5096495;28;20176;-51
2021/05/11 03:33:59;;;;;;;2.97;2.17;;;19.10;92.50;;;;;;5095850;28;20632;-46
2021/05/11 03:36:25;;;;;;;3.30;2.10;;;19.10;92.50;;;;;;5095973;28;20218;-50
2021/05/11 03:38:52;;;;;;;2.67;2.23;;;19.10;92.40;;;;;;5096005;28;20195;-48
2021/05/11 03:41:23;;;;;;;4.27;2.30;;;19.10;92.20;;;;;;5095771;28;20664;-52
2021/05/11 03:44:10;;;;;;;4.57;2.20;;;19.10;92.30;;;;;;5098398;28;20172;-49
2021/05/11 03:46:37;;;;;;;3.63;2.40;;;19.10;92.30;;;;;;5098203;28;20199;-55
2021/05/11 03:49:04;;;;;;;4.17;2.27;;;19.20;92.20;;;;;;5095212;28;20177;-51
2021/05/11 03:51:31;;;;;;;4.80;2.03;;;19.20;92.10;;;;;;5095840;28;20632;-50
2021/05/11 03:53:57;;;;;;;2.57;2.07;;;19.40;92.00;;;;;;5095276;28;20184;-45
2021/05/11 03:56:23;;;;;;;3.93;2.27;;;19.20;92.10;;;;;;5095803;28;20279;-45
2021/05/11 03:58:49;;;;;;;2.80;2.03;;;19.30;92.30;;;;;;5095687;28;20247;-52
2021/05/11 04:01:14;;;;;;;4.03;2.50;;;19.30;92.00;;;;;;5095281;28;20273;-49
2021/05/11 04:03:40;;;;;;;3.90;2.27;;;19.20;91.90;;;;;;5096337;28;20170;-55
2021/05/11 04:06:06;;;;;;;2.40;2.10;;;19.30;92.00;;;;;;5095930;28;20189;-47
2021/05/11 04:11:08;;;;;;;2.97;2.10;;;19.30;91.40;;;;;;5096244;28;20610;-50
2021/05/11 04:16:29;;;;;;;3.87;1.93;;;19.30;91.60;;;;;;5095047;28;20595;-50
2021/05/11 04:18:55;;;;;;;2.30;2.10;;;19.40;91.80;;;;;;5094864;28;20175;-49
2021/05/11 04:21:22;;;;;;;2.50;2.20;;;19.40;91.80;;;;;;5095539;28;20251;-55
2021/05/11 04:23:52;;;;;;;4.00;2.00;;;19.40;91.30;;;;;;5093908;28;20173;-52
2021/05/11 04:26:19;;;;;;;2.77;2.00;;;19.40;91.50;;;;;;5095582;28;20189;-48
2021/05/11 04:28:46;;;;;;;3.50;2.23;;;19.50;91.40;;;;;;5095974;28;20347;-49
2021/05/11 04:31:12;;;;;;;5.90;1.70;;;19.60;91.10;;;;;;5094558;28;20165;-50
2021/05/11 04:33:38;;;;;;;6.20;1.97;;;19.60;91.30;;;;;;5095711;28;20189;-45
2021/05/11 04:36:04;;;;;;;3.83;2.20;;;19.60;91.30;;;;;;5095101;28;20280;-49
2021/05/11 04:38:30;;;;;;;5.00;2.43;;;19.70;91.10;;;;;;5094112;28;20243;-50
2021/05/11 04:40:56;;;;;;;2.87;2.10;;;19.70;90.90;;;;;;5094794;28;20248;-45
2021/05/11 04:43:24;;;;;;;4.67;2.27;;;19.80;90.90;;;;;;5094639;28;20181;-49
2021/05/11 04:45:51;;;;;;;4.93;2.10;;;19.90;90.90;;;;;;5094245;28;20622;-50
2021/05/11 04:48:17;;;;;;;3.97;2.07;;;19.90;90.80;;;;;;5077326;28;20625;-51
2021/05/11 04:50:43;;;;;;;2.83;2.10;;;20.00;90.70;;;;;;5094512;28;20174;-46
2021/05/11 04:53:08;;;;;;;2.47;1.90;;;20.10;90.70;;;;;;5095464;28;20201;-47
2021/05/11 04:55:34;;;;;;;2.80;1.80;;;20.20;90.50;;;;;;5094392;28;20537;-53
2021/05/11 04:58:00;;;;;;;4.13;2.20;;;20.30;90.70;;;;;;5094219;28;20178;-49
2021/05/11 05:00:26;;;;;;;6.17;2.53;;;20.40;90.60;;;;;;5094814;28;20221;-46
2021/05/11 05:02:53;;;;;;;6.37;2.50;;;20.40;90.70;;;;;;5093996;28;20495;-45
2021/05/11 05:05:20;;;;;;;4.50;2.10;;;20.30;90.80;;;;;;5095034;28;20173;-46
2021/05/11 05:07:46;;;;;;;4.87;2.20;;;20.30;90.80;;;;;;5094715;28;20609;-55
2021/05/11 05:10:12;;;;;;;3.67;1.90;;;20.40;91.10;;;;;;5094199;28;20614;-49
2021/05/11 05:12:38;;;;;;;5.07;2.27;;;20.40;91.00;;;;;;5072860;28;20201;-47
2021/05/11 05:15:05;;;;;;;5.47;3.27;;;20.30;91.10;;;;;;5057575;28;20693;-45
2021/05/11 05:17:31;;;;;;;5.23;3.83;;;20.40;91.20;;;;;;5064019;28;20206;-46
2021/05/11 05:19:56;;;;;;;5.13;3.87;;;20.30;91.20;;;;;;5054542;28;20195;-48
2021/05/11 05:22:22;;;;;;;5.07;3.63;;;20.20;91.20;;;;;;5067050;28;20178;-52
2021/05/11 05:24:51;;;;;;;6.50;3.77;;;20.20;91.20;;;;;;5058186;28;20198;-51
2021/05/11 05:27:23;;;;;;;6.43;3.37;;;20.20;91.20;;;;;;5061739;28;20527;-47
2021/05/11 05:29:49;;;;;;;7.47;4.70;;;20.30;91.10;;;;;;5068357;28;20615;-45
2021/05/11 05:32:15;;;;;;;7.93;4.77;;;20.50;91.30;;;;;;5064209;28;20543;-49
2021/05/11 05:34:41;;;;;;;8.47;5.00;;;20.50;91.40;;;;;;5074130;28;20267;-46
2021/05/11 05:37:08;;;;;;;5.63;2.77;;;20.50;91.70;;;;;;5074048;28;20207;-45
2021/05/11 05:39:47;;;;;;;3.97;2.77;;;20.50;92.60;;;;;;5057765;28;20175;-48
2021/05/11 05:42:13;;;;;;;4.97;2.60;;;20.40;93.30;;;;;;5059541;28;20163;-50
2021/05/11 05:44:39;;;;;;;6.80;2.70;;;20.40;93.60;;;;;;5057110;28;20698;-54
2021/05/11 05:47:04;;;;;;;3.53;2.63;;;20.60;94.30;;;;;;5058561;28;20187;-45
2021/05/11 05:49:59;;;;;;;4.70;3.60;;;20.80;93.70;;;;;;5057472;28;20585;-46
2021/05/11 05:52:33;;;;;;;7.30;3.47;;;20.80;92.00;;;;;;5073376;28;20191;-48
2021/05/11 05:54:59;;;;;;;3.93;2.60;;;20.80;91.20;;;;;;5067855;28;20193;-50
2021/05/11 05:57:25;;;;;;;6.80;2.77;;;20.80;91.60;;;;;;5070233;28;20202;-51
2021/05/11 05:59:50;;;;;;;4.13;2.20;;;20.90;91.40;;;;;;5057232;28;20248;-49
2021/05/11 06:02:18;;;;;;;4.43;2.10;;;21.00;91.50;;;;;;5064639;28;20518;-47
2021/05/11 06:04:44;;;;;;;3.03;2.20;;;21.10;92.00;;;;;;5076383;28;20182;-47
2021/05/11 06:07:10;;;;;;;3.97;2.07;;;21.30;91.80;;;;;;5068535;28;20194;-50
2021/05/11 06:09:35;;;;;;;3.40;2.40;;;21.30;90.40;;;;;;5058197;28;20254;-50
2021/05/11 06:12:07;;;;;;;5.27;2.87;;;21.40;94.10;;;;;;5057938;28;20574;-46
2021/05/11 06:17:16;;;;;;;4.27;2.03;;;21.30;97.00;;;;;;5074926;28;20229;-50
2021/05/11 06:19:44;;;;;;;5.07;2.33;;;21.30;94.20;;;;;;5075058;28;20221;-57
2021/05/11 06:22:10;;;;;;;4.47;2.33;;;21.30;92.50;;;;;;5076231;28;20174;-52
2021/05/11 06:24:35;;;;;;;3.57;2.23;;;21.40;91.00;;;;;;5078387;28;20174;-48
2021/05/11 06:27:03;;;;;;;4.40;2.37;;;21.60;91.30;;;;;;5075954;28;20523;-49
2021/05/11 06:29:30;;;;;;;5.43;2.30;;;21.70;93.50;;;;;;5077931;28;20630;-47
2021/05/11 06:31:56;;;;;;;2.93;2.00;;;21.70;91.80;;;;;;5078239;28;20265;-49
2021/05/11 06:34:22;;;;;;;3.83;2.37;;;21.90;91.20;;;;;;5076278;28;20208;-51
2021/05/11 06:36:47;;;;;;;3.97;2.10;;;21.90;91.40;;;;;;5075949;28;20194;-57
2021/05/11 06:39:15;;;;;;;2.43;2.07;;;21.90;91.70;;;;;;5077851;28;20715;-48
2021/05/11 06:41:44;;;;;;;3.33;2.20;;;21.90;91.00;;;;;;5078008;28;20237;-50
2021/05/11 06:49:45;;;;;;;4.05;2.13;;;22.10;90.70;;;;;;5077961;28;20167;-55
2021/05/11 06:54:55;;;;;;;2.85;1.70;;;22.30;90.40;;;;;;5077188;28;20226;-57
2021/05/11 06:57:20;;;;;;;3.92;2.10;;;22.40;90.30;;;;;;5076618;28;20200;-50
2021/05/11 06:59:46;;;;;;;3.08;1.63;;;22.50;90.30;;;;;;5078046;28;20246;-48
2021/05/11 07:02:11;;;;;;;3.30;1.52;;;22.60;89.50;;;;;;5075551;28;20178;-50
2021/05/11 07:04:38;;;;;;;4.18;1.90;;;22.70;89.00;;;;;;5077527;28;20181;-52
2021/05/11 07:07:08;;;;;;;3.65;1.67;;;23.10;90.10;;;;;;5077273;28;20199;-57
2021/05/11 07:14:34;;;;;;;4.70;2.13;;;22.80;87.80;;;;;;5076603;28;20170;-54
2021/05/11 07:16:59;;;;;;;4.50;2.17;;;23.00;86.40;;;;;;5076498;28;20185;-47
2021/05/11 07:19:25;;;;;;;3.63;2.08;;;23.10;83.00;;;;;;5075369;28;20197;-48
2021/05/11 07:21:51;;;;;;;4.95;2.13;;;22.90;82.80;;;;;;5076421;28;20203;-56
2021/05/11 07:24:18;;;;;;;3.85;1.90;;;23.20;82.80;;;;;;5075396;28;20212;-54
2021/05/11 07:27:10;;;;;;;2.63;1.70;;;23.20;84.80;;;;;;5075424;28;20201;-57
2021/05/11 07:32:00;;;;;;;4.70;2.08;;;23.30;82.80;;;;;;5075433;28;20256;-47
2021/05/11 07:34:27;;;;;;;4.82;2.03;;;23.40;84.90;;;;;;5075059;28;20550;-49
2021/05/11 07:36:53;;;;;;;6.10;2.47;;;23.50;81.90;;;;;;5075782;28;20209;-56
2021/05/11 07:39:19;;;;;;;2.88;1.75;;;23.60;79.60;;;;;;5075610;28;20202;-52
2021/05/11 07:41:45;;;;;;;5.35;2.38;;;23.80;81.80;;;;;;5075902;28;20203;-56
2021/05/11 07:44:12;;;;;;;2.33;1.80;;;23.90;79.90;;;;;;5075554;28;20201;-57
2021/05/11 08:10:57;;;;;;;2.67;1.85;;;24.40;78.40;;;;;;5074582;28;20292;-47
2021/05/11 08:16:12;;;;;;;3.40;1.88;;;24.80;77.90;;;;;;5074412;28;20538;-47
2021/05/11 08:29:18;;;;;;;8.60;2.05;;;24.80;70.80;;;;;;5075116;28;20172;-47
2021/05/11 08:31:43;;;;;;;2.33;1.60;;;24.80;72.00;;;;;;5075377;28;20183;-47
2021/05/11 08:34:09;;;;;;;3.33;1.75;;;24.90;74.10;;;;;;5073697;28;20187;-55
2021/05/11 08:36:35;;;;;;;4.72;2.00;;;25.00;69.60;;;;;;5071627;28;20221;-56
2021/05/11 08:39:01;;;;;;;2.83;2.00;;;25.00;70.20;;;;;;5078391;28;20729;-57
2021/05/11 08:41:26;;;;;;;2.92;1.80;;;25.10;69.80;;;;;;5086177;28;20293;-47
2021/05/11 08:43:52;;;;;;;2.58;1.80;;;25.20;74.30;;;;;;5085935;28;20177;-49
2021/05/11 08:46:18;;;;;;;2.72;1.65;;;25.60;75.00;;;;;;5084492;28;20191;-48
2021/05/11 08:48:43;;;;;;;4.43;1.98;;;25.50;70.60;;;;;;5091180;28;20181;-47
2021/05/11 08:51:17;;;;;;;3.78;1.92;;;25.60;67.20;;;;;;5079339;28;20174;-50
2021/05/11 09:29:12;;;;;;;6.95;2.13;;;26.90;61.30;;;;;;5060440;28;20237;-49
2021/05/11 09:51:08;;;;;;;2.53;1.60;;;27.30;61.20;;;;;;5061532;28;20265;-47
2021/05/11 10:49:33;;;;;;;5.15;1.80;;;29.30;56.30;;;;;;5056918;28;20191;-57
2021/05/11 10:52:21;;;;;;;4.45;1.77;;;29.30;55.70;;;;;;5056378;28;20175;-54
2021/05/11 10:54:48;;;;;;;3.30;1.65;;;29.20;54.60;;;;;;5056051;28;20210;-56
2021/05/11 11:03:16;;;;;;;3.83;1.50;;;30.00;55.70;;;;;;5056217;28;20202;-49
2021/05/11 11:06:02;;;;;;;2.17;1.58;;;29.90;54.10;;;;;;5055528;28;20189;-48
2021/05/11 11:08:40;;;;;;;3.92;1.67;;;29.80;52.90;;;;;;5054697;28;20175;-57
2021/05/11 11:11:17;;;;;;;5.22;1.55;;;29.90;53.90;;;;;;5055263;28;20185;-50
2021/05/11 11:13:42;;;;;;;4.95;1.58;;;30.00;54.00;;;;;;5057345;28;20183;-56
2021/05/11 11:16:08;;;;;;;3.15;1.33;;;30.10;55.60;;;;;;5062398;28;20220;-54
2021/05/11 11:18:34;;;;;;;3.67;1.50;;;30.10;52.40;;;;;;5094285;28;20205;-52
2021/05/11 11:21:18;;;;;;;3.10;1.60;;;30.20;53.50;;;;;;5095367;28;20255;-53
2021/05/11 11:23:54;;;;;;;3.92;1.20;;;30.30;53.60;;;;;;5095171;28;20223;-56
2021/05/11 11:26:28;;;;;;;4.85;1.83;;;30.50;53.10;;;;;;5095273;28;20189;-57
2021/05/11 11:29:07;;;;;;;2.33;1.35;;;30.40;53.00;;;;;;5094877;28;20216;-47
2021/05/11 11:31:40;;;;;;;3.13;1.60;;;30.40;52.20;;;;;;5095569;28;20511;-47
2021/05/11 11:34:19;;;;;;;7.75;1.38;;;30.50;53.70;;;;;;5096466;28;20205;-54
2021/05/11 11:36:55;;;;;;;4.07;1.60;;;30.50;53.60;;;;;;5092314;28;20192;-54
2021/05/11 11:39:35;;;;;;;4.25;1.40;;;30.50;54.50;;;;;;5083684;28;20264;-56
2021/05/11 11:42:04;;;;;;;5.25;1.75;;;30.60;53.10;;;;;;5096889;28;20568;-56
2021/05/11 11:44:35;;;;;;;3.15;1.35;;;30.80;54.10;;;;;;5096470;28;20622;-49
2021/05/11 11:47:03;;;;;;;5.22;1.40;;;30.70;55.30;;;;;;5095584;28;20677;-58
2021/05/11 11:49:32;;;;;;;5.88;1.80;;;31.00;53.70;;;;;;5090118;28;20178;-52
2021/05/11 12:00:14;;;;;;;4.28;1.92;;;31.10;51.00;;;;;;5075638;28;20254;-54
2021/05/11 12:02:54;;;;;;;4.78;1.55;;;30.80;51.50;;;;;;5075314;28;20606;-57
2021/05/11 12:05:22;;;;;;;4.18;1.80;;;30.80;51.00;;;;;;5074824;28;20623;-51
2021/05/11 12:10:29;;;;;;;3.38;1.75;;;30.60;51.80;;;;;;5075637;28;20175;-49
2021/05/11 12:12:56;;;;;;;5.55;1.75;;;30.50;50.60;;;;;;5073799;28;20200;-57
2021/05/11 12:15:23;;;;;;;2.88;1.50;;;30.40;50.50;;;;;;5074912;28;20182;-48
2021/05/11 12:18:19;;;;;;;2.88;1.63;;;30.50;54.00;;;;;;5076415;28;20198;-56
2021/05/11 12:20:46;;;;;;;3.35;1.50;;;30.70;52.40;;;;;;5075769;28;20225;-55
2021/05/11 12:23:18;;;;;;;3.05;1.48;;;30.50;53.50;;;;;;5075623;28;20182;-49
2021/05/11 12:26:01;;;;;;;3.00;1.60;;;30.30;53.90;;;;;;5074288;28;20515;-49
2021/05/11 12:28:36;;;;;;;2.90;1.67;;;30.20;54.10;;;;;;5075119;28;20166;-50
2021/05/11 12:31:04;;;;;;;3.40;1.25;;;30.20;53.80;;;;;;5075977;28;20174;-57
2021/05/11 12:33:44;;;;;;;4.35;1.55;;;30.20;53.60;;;;;;5073920;28;20577;-53
2021/05/11 12:36:23;;;;;;;3.13;1.70;;;30.00;53.00;;;;;;5074983;28;20780;-47
2021/05/11 12:38:50;;;;;;;2.85;1.50;;;29.80;54.30;;;;;;5073837;28;20672;-56
2021/05/11 12:41:32;;;;;;;4.90;1.92;;;29.70;55.20;;;;;;5074979;28;20210;-55
2021/05/11 12:44:00;;;;;;;6.10;1.85;;;29.40;55.00;;;;;;5074947;28;20262;-50
2021/05/11 12:46:29;;;;;;;2.95;1.77;;;29.20;56.20;;;;;;5075767;28;20267;-47
2021/05/11 12:49:15;;;;;;;6.97;1.90;;;29.00;55.80;;;;;;5068748;28;20654;-56
2021/05/11 12:51:42;;;;;;;3.35;1.70;;;29.00;55.60;;;;;;5071337;28;20171;-55
2021/05/11 12:54:52;;;;;;;6.40;1.70;;;28.90;55.10;;;;;;5066272;28;20189;-53
2021/05/11 12:57:52;;;;;;;5.38;1.77;;;28.80;55.40;;;;;;5078458;28;20262;-48
2021/05/11 13:00:34;;;;;;;5.13;1.70;;;28.60;56.10;;;;;;5077874;28;20208;-48
2021/05/11 13:27:53;;;;;;;2.80;1.67;;;28.40;58.30;;;;;;5054750;28;20322;-56
2021/05/11 13:30:32;;;;;;;2.75;1.50;;;28.30;58.60;;;;;;5051508;28;20190;-48
2021/05/11 13:35:34;;;;;;;4.00;1.83;;;28.10;58.60;;;;;;5054506;28;20639;-56
2021/05/11 13:37:59;;;;;;;2.40;1.75;;;28.10;58.10;;;;;;5053574;28;20229;-55
2021/05/11 13:40:25;;;;;;;2.80;1.67;;;28.10;58.30;;;;;;5054171;28;20203;-50
2021/05/11 13:42:54;;;;;;;3.35;1.67;;;28.10;57.80;;;;;;5053083;28;20667;-51
2021/05/11 13:45:20;;;;;;;5.43;1.80;;;28.10;58.30;;;;;;5053338;28;20649;-52
2021/05/11 13:48:00;;;;;;;3.17;1.88;;;28.10;58.50;;;;;;5053611;28;20722;-51
2021/05/11 13:53:12;;;;;;;5.55;2.10;;;28.30;59.40;;;;;;4992316;28;20193;-48
2021/05/11 14:03:51;;;;;;;3.08;1.95;;;29.00;59.70;;;;;;4986025;28;20573;-47
2021/05/11 14:06:16;;;;;;;3.35;2.15;;;29.10;60.70;;;;;;4995675;28;20681;-47
2021/05/11 14:08:42;;;;;;;3.88;2.60;;;29.20;59.40;;;;;;4997558;28;20533;-57
2021/05/11 14:11:08;;;;;;;3.63;2.53;;;29.30;59.30;;;;;;4996480;28;20276;-47
2021/05/11 14:13:33;;;;;;;2.33;2.13;;;29.30;60.10;;;;;;4995482;28;20183;-47
2021/05/11 14:15:59;;;;;;;3.63;2.20;;;29.40;58.50;;;;;;4996258;28;20197;-56
2021/05/11 14:18:25;;;;;;;3.95;2.58;;;29.30;59.20;;;;;;4996063;28;20689;-47
2021/05/11 14:20:50;;;;;;;6.30;2.90;;;29.30;59.40;;;;;;4996476;28;20280;-57
2021/05/11 14:23:16;;;;;;;3.53;2.20;;;29.30;58.90;;;;;;4995461;28;20558;-58
2021/05/11 14:25:41;;;;;;;3.40;1.98;;;29.30;59.30;;;;;;4996090;28;20177;-52
2021/05/11 14:28:07;;;;;;;5.05;2.13;;;29.20;57.90;;;;;;4996012;28;20260;-52
2021/05/11 14:30:33;;;;;;;3.70;1.85;;;29.00;58.00;;;;;;5034353;28;20187;-48
2021/05/11 14:32:58;;;;;;;3.10;1.70;;;28.80;58.80;;;;;;5057987;28;20182;-55
2021/05/11 14:35:24;;;;;;;3.25;1.80;;;28.70;58.70;;;;;;5057272;28;20492;-49
2021/05/11 14:37:50;;;;;;;3.75;1.80;;;28.60;59.80;;;;;;5057772;28;20245;-53
2021/05/11 14:40:16;;;;;;;4.65;2.00;;;28.70;59.90;;;;;;5059150;28;20225;-57
2021/05/11 14:42:42;;;;;;;4.28;1.88;;;28.60;59.60;;;;;;5057487;28;20179;-53
2021/05/11 14:45:09;;;;;;;4.20;2.05;;;28.60;61.00;;;;;;5055566;28;20278;-54
2021/05/11 14:47:36;;;;;;;5.75;1.98;;;28.40;60.70;;;;;;5057761;28;20202;-51
2021/05/11 14:50:02;;;;;;;9.88;1.73;;;28.20;60.10;;;;;;5055568;28;20186;-46
2021/05/11 14:52:28;;;;;;;4.13;1.70;;;28.20;61.00;;;;;;5056831;28;20207;-50
2021/05/11 14:54:54;;;;;;;4.72;2.05;;;28.20;60.90;;;;;;5056592;28;20207;-47
2021/05/11 14:57:19;;;;;;;5.85;1.95;;;28.10;59.50;;;;;;5056420;28;20546;-49
2021/05/11 14:59:45;;;;;;;2.65;1.40;;;27.90;58.70;;;;;;5057018;28;20257;-47
2021/05/11 15:02:13;;;;;;;3.22;1.58;;;27.80;59.00;;;;;;5056445;28;20314;-48
2021/05/11 15:04:39;;;;;;;3.42;1.50;;;27.80;60.40;;;;;;5057181;28;20590;-47
2021/05/11 15:07:05;;;;;;;3.53;1.75;;;27.80;58.90;;;;;;5055404;28;20734;-48
2021/05/11 15:09:30;;;;;;;4.57;1.85;;;27.70;57.60;;;;;;5056668;28;20167;-47
2021/05/11 15:11:56;;;;;;;7.43;1.75;;;27.70;58.50;;;;;;5055756;28;20187;-49
2021/05/11 15:14:21;;;;;;;7.07;1.70;;;27.70;59.20;;;;;;5056642;28;20175;-57
2021/05/11 15:16:56;;;;;;;5.28;1.77;;;27.60;57.40;;;;;;5056168;28;20199;-57
2021/05/11 15:19:22;;;;;;;3.72;1.67;;;27.60;57.40;;;;;;5057047;28;20174;-56
2021/05/11 15:21:47;;;;;;;8.63;1.85;;;27.40;57.10;;;;;;5055221;28;20210;-55
2021/05/11 15:24:13;;;;;;;4.47;1.48;;;27.30;57.40;;;;;;5055941;28;20191;-50
2021/05/11 15:26:38;;;;;;;5.10;1.40;;;27.10;58.20;;;;;;5056331;28;20200;-47
2021/05/11 15:29:05;;;;;;;2.35;1.50;;;27.00;59.30;;;;;;5054555;28;20178;-47
2021/05/11 15:31:32;;;;;;;3.97;1.50;;;26.90;59.40;;;;;;5057307;28;20175;-52
2021/05/11 15:33:58;;;;;;;5.18;1.63;;;26.90;59.90;;;;;;5074329;28;20178;-52
2021/05/11 15:36:24;;;;;;;4.97;1.77;;;26.80;60.20;;;;;;5076694;28;20692;-46
2021/05/11 15:38:50;;;;;;;6.90;1.80;;;26.70;60.50;;;;;;5077555;28;20198;-46
2021/05/11 15:41:16;;;;;;;3.22;1.33;;;26.60;61.00;;;;;;5075651;28;20220;-54
2021/05/11 15:43:41;;;;;;;6.13;1.98;;;26.60;62.10;;;;;;5076279;28;20167;-49
2021/05/11 15:46:07;;;;;;;5.32;1.67;;;26.60;61.90;;;;;;5074932;28;20195;-51
2021/05/11 15:48:32;;;;;;;3.83;1.60;;;26.50;62.00;;;;;;5076119;28;20170;-52
2021/05/11 15:50:58;;;;;;;3.63;1.65;;;26.70;62.30;;;;;;5077639;28;20175;-52
2021/05/11 15:53:23;;;;;;;7.22;1.88;;;26.60;63.40;;;;;;5075806;28;20170;-51
2021/05/11 15:55:49;;;;;;;2.22;1.30;;;26.60;62.70;;;;;;5076726;28;20174;-51
2021/05/11 15:58:17;;;;;;;5.78;1.98;;;26.70;63.10;;;;;;5075381;28;20607;-47
2021/05/11 16:00:48;;;;;;;6.95;1.80;;;26.60;63.80;;;;;;5075128;28;20226;-55
2021/05/11 16:03:14;;;;;;;5.40;1.85;;;26.70;63.00;;;;;;5076501;28;20170;-55
2021/05/11 16:05:39;;;;;;;5.13;1.80;;;26.60;63.70;;;;;;5076772;28;20531;-47
2021/05/11 16:08:08;;;;;;;6.50;2.03;;;26.60;63.70;;;;;;5075699;28;20249;-47
2021/05/11 16:10:34;;;;;;;3.80;1.60;;;26.60;64.30;;;;;;5077851;28;20178;-55
2021/05/11 16:13:00;;;;;;;4.18;1.60;;;26.70;65.50;;;;;;5076036;28;20530;-58
2021/05/11 16:15:27;;;;;;;7.95;1.80;;;26.70;64.90;;;;;;5074559;28;20186;-47
2021/05/11 16:17:52;;;;;;;4.15;1.65;;;26.60;64.50;;;;;;5074285;28;20183;-48
2021/05/11 16:20:18;;;;;;;3.97;1.70;;;26.60;65.40;;;;;;5064316;28;20282;-49
2021/05/11 16:22:44;;;;;;;6.18;2.00;;;26.60;65.60;;;;;;5093935;28;20715;-47
2021/05/11 16:25:12;;;;;;;7.65;1.88;;;26.50;65.90;;;;;;5094039;28;20178;-47
2021/05/11 16:27:39;;;;;;;7.53;2.03;;;26.20;65.50;;;;;;5095250;28;20217;-49
2021/05/11 16:30:09;;;;;;;2.95;1.60;;;26.20;66.10;;;;;;5095010;28;20177;-53
2021/05/11 16:32:35;;;;;;;6.63;2.00;;;26.10;65.30;;;;;;5095029;28;20209;-56
2021/05/11 16:35:01;;;;;;;5.68;1.60;;;25.80;64.90;;;;;;5095972;28;20181;-47
2021/05/11 16:37:26;;;;;;;3.60;1.48;;;25.80;60.80;;;;;;5097862;28;20213;-52
2021/05/11 16:39:52;;;;;;;1.70;1.00;;;25.60;60.80;;;;;;5094520;28;20166;-56
2021/05/11 16:42:17;;;;;;;2.17;1.10;;;25.40;60.40;;;;;;5093368;28;20572;-51
2021/05/11 16:44:43;;;;;;;4.78;1.23;;;25.50;59.30;;;;;;5094237;28;20707;-57
2021/05/11 16:47:08;;;;;;;4.03;1.27;;;25.00;59.50;;;;;;5092011;28;20209;-50
2021/05/11 16:49:36;;;;;;;2.65;1.05;;;25.30;59.50;;;;;;5093306;28;20210;-52
2021/05/11 16:52:02;;;;;;;7.00;1.20;;;25.20;59.70;;;;;;5091086;28;20201;-51
2021/05/11 16:54:28;;;;;;;6.40;1.15;;;25.10;60.70;;;;;;5091917;28;20236;-49
2021/05/11 16:56:53;;;;;;;4.28;1.30;;;25.10;62.50;;;;;;5094712;28;20194;-56
2021/05/11 16:59:19;;;;;;;3.47;1.23;;;24.80;63.60;;;;;;5095118;28;20188;-54
2021/05/11 17:01:46;;;;;;;4.47;1.98;;;24.80;70.90;;;;;;5093793;28;20197;-48
2021/05/11 17:04:11;;;;;;;7.03;2.25;;;24.30;81.60;;;;;;5095377;28;20178;-49
2021/05/11 17:06:37;;;;;;;6.63;2.40;;;24.00;85.10;;;;;;5095938;28;20255;-54
2021/05/11 17:09:08;;;;;;;3.28;2.50;;;23.70;88.80;;;;;;5095659;28;20204;-46
2021/05/11 17:11:35;;;;;;;5.80;2.50;;;23.60;90.40;;;;;;5095775;28;20186;-50
2021/05/11 17:14:06;;;;;;;5.80;2.70;;;22.80;91.30;;;;;;5095443;28;20184;-54
2021/05/11 17:16:32;;;;;;;6.05;2.55;;;22.50;92.20;;;;;;5097109;28;20663;-55
2021/05/11 17:18:58;;;;;;;7.82;2.75;;;22.30;93.30;;;;;;5094600;28;20200;-54
2021/05/11 17:21:26;;;;;;;6.47;3.00;;;22.10;94.10;;;;;;5094377;28;20201;-47
2021/05/11 17:23:53;;;;;;;3.30;2.70;;;21.60;95.00;;;;;;5094125;28;20181;-50
2021/05/11 17:26:19;;;;;;;4.37;3.03;;;21.50;96.10;;;;;;5096133;28;20204;-53
2021/05/11 17:28:45;;;;;;;4.73;3.07;;;21.40;96.60;;;;;;5094975;28;20553;-47
2021/05/11 17:31:11;;;;;;;2.80;2.60;;;21.30;97.20;;;;;;5097363;28;20378;-57
2021/05/11 17:33:37;;;;;;;3.30;2.67;;;21.10;97.50;;;;;;5098707;28;20177;-55
2021/05/11 17:36:03;;;;;;;3.77;2.80;;;20.80;98.00;;;;;;5099898;28;20221;-49